Terminal Aerodrome Forecast
Issued by NWS Burlington, VT

Current Version | Previous Version | Text Only | Print | Product List | Glossary On
Versions: 1 2 3 4 5 6 7 8 9 10 11 12 13 14 15
919
FTUS41 KBTV 060531
TAFBTV
TAF
KBTV 060531Z 0606/0706 01004KT P6SM BKN150
     FM061200 35008KT P6SM FEW250
     FM061900 35012KT P6SM SCT150
     FM062100 36013KT P6SM BKN050
     FM070000 07004KT P6SM BKN050
     FM070300 14004KT P6SM BKN060=

USA.gov is the U.S. government's official web portal to all federal, state and local government web resources and services.